Milford, MA (01757)

3:06 AM EDT en Agosto 28, 2014 (GMT -0400)
Lucia and Clarridge Cir. | Change Station
CLOSE
Current Station
Estación meteorológica personal
Location: Milford, MA
Altura: 357 ft
Estaciones meteorológicas cercanas

Alt 357 ft 42.17 °N, 71.53 °W | Updated 2 minutes ago

Despejado
Despejado
67.4 ° F
Sensación térmica 67.4 ° F
N
1.0
Viento Variable Viento desde NNO
Gusts 2.0 mph

Hoy
Alta -- | Baja -- ° F
--% Posibilidad de precipitaciones
Ayer
Alta -- | Baja -- ° F
Precip. -- pul
6:07 AM 7:26 PM
Creciente, 7% visible
Presión 29.83 pul
Visibilidad 10.0 Millas
Nubes Despejado
Punto de rocío 61 ° F
Humedad 79%
Precipitaciones 0.00 pul
Espesor de la nieve No disponible.
UV 0 de una escala de 12
Polen 9.90 de una escala de 12
PM2.5 Buena
Flu Activity No disponible.
METAR KSFZ 280655Z 30005KT 10SM CLR 20/17 A2983 RMK AO1

More Conditions Fewer Conditions

Presión 29.83 pul
Visibilidad 10.0 Millas
Nubes Despejado
Punto de rocío 61 ° F
Humedad 79%
Precipitaciones 0.00 pul
Espesor de la nieve No disponible.
UV 0 de una escala de 12
Polen 9.90 de una escala de 12
PM2.5 Buena
Flu Activity No disponible.
METAR KSFZ 280655Z 30005KT 10SM CLR 20/17 A2983 RMK AO1

More Conditions Fewer Conditions

10-Day Weather Forecast

Almanac

Astronomía

Aug. 28, 2014 Salida Puesta
Hora real 6:07 AM EDT 7:26 PM EDT
Crepúsculo civil 5:38 AM EDT 7:55 PM EDT
Crepúsculo náutico 5:03 AM EDT 8:30 PM EDT
Crepúsculo astronómico 4:26 AM EDT 9:07 PM EDT
Luna 9:00 AM EDT 8:44 PM EDT
Horas de luz 14h 17m
Horas de luz
13h 19m
Tomorrow will be 2m 41s shorter.
Creciente, 7% of the Moon is Illuminated
Hoy
Creciente
Sep 2
Cuarto creciente
Sep 8
Luna llena
Sep 15
Cuarto menguante
Sep 24
Nueva

Extremos de hoy

Máximos del estado Bajos del estado

Community

WunderPhotos

Upload Photos

1,747,912 ¡fotos cargadas!

Nearby

Calidad del aire

  Calidad del aire Índice AQ Contaminante
Ayer Buena
PM2.5
Real Buena
PM2.5
Jueves Buena
PM2.5
Jueves Buena
OZONE

Grosos de nieve

Estación Profundido Altura
No tenemos constancia de nieve nueva.

Actividad de terremotos

Ciudad Distance Mag. Tiempo y dato
No hay informes recientes de la actividad sísmica.
Magnitud mínima muestra es 2,5.

Temperaturas de aguas costeras

Lugar Temperatura
Newport, RI 70.0 ° F
Quonset Point, RI 72.0 ° F
Conimicut Light, RI 73.0 ° F

Estaciones meteorológicas cercanas